createdAt,value
2023-04-12T00:02:05.136Z,70.5
2023-04-12T00:12:05.743Z,72.0
2023-04-12T00:22:04.781Z,74.3
2023-04-12T00:32:04.685Z,75.8
2023-04-12T00:42:05.044Z,80.1
2023-04-12T00:52:04.835Z,81.2
2023-04-12T01:02:05.386Z,83.0
2023-04-12T01:12:05.020Z,84.1
2023-04-12T01:22:04.981Z,85.7
2023-04-12T01:32:04.748Z,86.7
2023-04-12T01:42:04.426Z,86.5
2023-04-12T01:52:04.746Z,87.7
2023-04-12T02:02:04.870Z,88.0
2023-04-12T02:12:04.895Z,89.2
2023-04-12T02:22:04.625Z,89.0
2023-04-12T02:32:04.470Z,88.5
2023-04-12T02:42:04.464Z,88.2
2023-04-12T02:52:04.932Z,88.7
2023-04-12T03:02:05.271Z,88.5
2023-04-12T03:12:05.199Z,88.0
2023-04-12T03:22:04.953Z,87.8
2023-04-12T03:32:05.135Z,87.2
2023-04-12T03:42:04.889Z,86.9
2023-04-12T03:52:05.342Z,87.1
2023-04-12T04:02:06.139Z,87.3
2023-04-12T04:12:05.830Z,87.9
2023-04-12T04:22:05.578Z,88.5
2023-04-12T04:32:04.738Z,89.6
2023-04-12T04:42:05.174Z,90.3
2023-04-12T04:52:05.555Z,91.2
2023-04-12T05:02:05.446Z,91.5
2023-04-12T05:12:05.254Z,92.2
2023-04-12T05:22:05.765Z,92.5
2023-04-12T05:32:05.385Z,92.8
2023-04-12T05:42:05.419Z,93.2
2023-04-12T05:52:05.268Z,93.8
2023-04-12T06:02:05.536Z,93.9
2023-04-12T06:12:05.313Z,94.2
2023-04-12T06:22:09.682Z,94.2
2023-04-12T06:32:05.356Z,94.2
2023-04-12T06:42:05.555Z,94.7
2023-04-12T06:52:05.315Z,95.2
2023-04-12T07:04:46.019Z,95.2
2023-04-12T07:14:46.728Z,95.4
2023-04-12T07:24:50.034Z,95.7
2023-04-12T07:34:49.010Z,96.0
2023-04-12T07:44:52.610Z,96.1
2023-04-12T07:54:49.833Z,96.3
2023-04-12T08:04:49.820Z,96.2
2023-04-12T08:14:50.109Z,95.8
2023-04-12T08:24:53.172Z,96.1
2023-04-12T08:34:50.566Z,96.4
2023-04-12T08:44:52.684Z,95.7
2023-04-12T08:54:53.173Z,95.9
2023-04-12T09:04:52.043Z,95.5
2023-04-12T09:14:49.973Z,95.5
2023-04-12T09:24:50.261Z,93.9
2023-04-12T09:34:50.465Z,93.3
2023-04-12T09:44:50.521Z,94.2
2023-04-12T09:54:51.006Z,87.0
2023-04-12T10:04:55.742Z,88.1
2023-04-12T10:14:51.000Z,85.4
2023-04-12T10:24:50.466Z,84.5
2023-04-12T10:34:52.506Z,81.3
2023-04-12T10:44:55.335Z,81.2
2023-04-12T10:54:50.842Z,83.4
2023-04-12T11:04:51.734Z,78.4
2023-04-12T11:14:52.056Z,76.5
2023-04-12T11:24:51.055Z,71.5
2023-04-12T11:34:51.356Z,70.3
2023-04-12T11:44:56.828Z,72.5
2023-04-12T11:54:53.366Z,70.4
2023-04-12T12:04:52.614Z,74.2
2023-04-12T12:14:52.283Z,73.2
2023-04-12T12:24:51.210Z,72.9
2023-04-12T12:34:52.374Z,68.7
2023-04-12T12:44:51.348Z,65.5
2023-04-12T12:54:52.204Z,66.6
2023-04-12T13:04:53.000Z,76.5
2023-04-12T13:14:57.969Z,71.3
2023-04-12T13:24:55.110Z,71.8
2023-04-12T13:34:52.867Z,69.5
2023-04-12T13:44:52.982Z,64.7
2023-04-12T13:54:53.753Z,62.3
2023-04-12T14:04:52.968Z,59.4
2023-04-12T14:14:54.310Z,57.3
2023-04-12T14:24:53.722Z,59.2
2023-04-12T14:34:57.519Z,55.7
2023-04-12T14:44:54.412Z,59.6
2023-04-12T14:54:54.152Z,58.9
2023-04-12T15:04:57.197Z,58.6
2023-04-12T15:14:55.019Z,58.0
2023-04-12T15:24:55.041Z,60.1
2023-04-12T15:34:55.169Z,60.6
2023-04-12T15:44:56.237Z,62.8
2023-04-12T15:54:54.715Z,65.7
2023-04-12T16:04:58.748Z,67.1
2023-04-12T16:14:57.993Z,66.5
2023-04-12T16:24:55.467Z,63.7
2023-04-12T16:34:55.608Z,64.8
2023-04-12T16:44:56.334Z,67.6
2023-04-12T16:54:55.652Z,69.8
2023-04-12T17:04:55.745Z,70.4
2023-04-12T17:14:56.670Z,69.8
2023-04-12T17:24:55.701Z,67.8
2023-04-12T17:34:58.164Z,68.5
2023-04-12T17:44:56.525Z,69.0
2023-04-12T17:54:56.116Z,70.5
2023-04-12T18:04:56.130Z,71.3
2023-04-12T18:14:56.043Z,73.3
2023-04-12T18:24:55.938Z,75.5
2023-04-12T18:34:56.733Z,76.6
2023-04-12T18:44:56.598Z,79.1
2023-04-12T18:54:55.985Z,80.3
2023-04-12T19:04:57.861Z,81.3
2023-04-12T19:14:56.792Z,82.1
2023-04-12T19:24:56.433Z,82.7
2023-04-12T19:34:56.917Z,83.3
2023-04-12T19:44:57.035Z,83.3
2023-04-12T19:54:56.550Z,83.5
2023-04-12T20:04:56.846Z,83.7
2023-04-12T20:14:57.543Z,84.1
2023-04-12T20:24:56.417Z,84.8
2023-04-12T20:34:56.699Z,84.3
2023-04-12T20:44:56.830Z,83.4
2023-04-12T20:54:56.690Z,83.2
2023-04-12T21:04:58.864Z,83.4
2023-04-12T21:14:56.924Z,83.2
2023-04-12T21:24:56.425Z,83.6
2023-04-12T21:34:56.471Z,83.6
2023-04-12T21:44:56.848Z,83.4
2023-04-12T21:54:56.650Z,82.2
2023-04-12T22:04:57.490Z,81.7
2023-04-12T22:14:56.636Z,80.5
2023-04-12T22:24:56.477Z,79.2
2023-04-12T22:35:05.306Z,78.6
2023-04-12T22:44:56.496Z,77.0
2023-04-12T22:54:56.631Z,76.4
2023-04-12T23:04:59.190Z,76.6
2023-04-12T23:14:59.518Z,77.1
2023-04-12T23:25:00.015Z,76.5
2023-04-12T23:35:00.382Z,82.2
2023-04-12T23:44:59.218Z,85.7
2023-04-12T23:54:59.777Z,86.4
